createdAt,value
2023-01-26T00:00:53.400Z,30.10
2023-01-26T00:01:53.402Z,29.10
2023-01-26T00:02:53.421Z,31.30
2023-01-26T00:03:53.396Z,31.00
2023-01-26T00:04:53.338Z,29.20
2023-01-26T00:05:53.352Z,31.60
2023-01-26T00:06:53.338Z,31.30
2023-01-26T00:07:53.312Z,30.30
2023-01-26T00:08:53.314Z,31.10
2023-01-26T00:09:53.285Z,30.70
2023-01-26T00:10:53.354Z,28.60
2023-01-26T00:11:53.275Z,32.30
2023-01-26T00:12:53.265Z,31.80
2023-01-26T00:13:53.247Z,31.40
2023-01-26T00:14:53.298Z,30.50
2023-01-26T00:15:53.264Z,30.60
2023-01-26T00:16:53.214Z,31.40
2023-01-26T00:17:53.200Z,31.50
2023-01-26T00:18:53.204Z,32.50
2023-01-26T00:19:53.171Z,30.90
2023-01-26T00:20:53.179Z,30.90
2023-01-26T00:21:53.151Z,31.80
2023-01-26T00:22:53.158Z,29.90
2023-01-26T00:23:53.245Z,30.40
2023-01-26T00:24:53.197Z,31.20
2023-01-26T00:25:53.142Z,31.60
2023-01-26T00:26:53.118Z,30.90
2023-01-26T00:27:53.140Z,30.70
2023-01-26T00:28:53.085Z,31.50
2023-01-26T00:29:53.079Z,30.80
2023-01-26T00:30:53.120Z,29.00
2023-01-26T00:31:53.055Z,29.30
2023-01-26T00:32:53.061Z,29.90
2023-01-26T00:33:53.033Z,30.80
2023-01-26T00:34:53.037Z,30.90
2023-01-26T00:35:53.031Z,30.80
2023-01-26T00:36:53.012Z,32.80
2023-01-26T00:37:52.997Z,32.00
2023-01-26T00:38:52.991Z,30.70
2023-01-26T00:39:52.968Z,30.40
2023-01-26T00:40:52.965Z,30.90
2023-01-26T00:41:52.980Z,30.30
2023-01-26T00:42:52.932Z,32.30
2023-01-26T00:43:52.927Z,30.50
2023-01-26T00:44:52.918Z,31.80
2023-01-26T00:45:52.966Z,32.50
2023-01-26T00:46:52.915Z,32.90
2023-01-26T00:47:52.906Z,30.70
2023-01-26T00:48:52.874Z,31.40
2023-01-26T00:49:52.865Z,30.50
2023-01-26T00:50:52.864Z,31.90
2023-01-26T00:51:52.867Z,31.50
2023-01-26T00:52:52.843Z,30.80
2023-01-26T00:53:52.808Z,32.10
2023-01-26T00:54:52.791Z,30.40
2023-01-26T00:55:52.812Z,30.30
2023-01-26T00:56:52.804Z,31.50
2023-01-26T00:57:52.779Z,28.80
2023-01-26T00:58:52.759Z,31.10
2023-01-26T00:59:52.740Z,32.00
2023-01-26T01:00:52.825Z,30.40
2023-01-26T01:01:52.757Z,31.30
2023-01-26T01:02:52.714Z,31.20
2023-01-26T01:03:52.702Z,31.40
2023-01-26T01:04:52.757Z,30.80
2023-01-26T01:05:52.725Z,30.40
2023-01-26T01:06:52.698Z,31.20
2023-01-26T01:07:52.660Z,32.40
2023-01-26T01:08:52.651Z,28.80
2023-01-26T01:09:52.651Z,31.80
2023-01-26T01:10:52.639Z,30.90
2023-01-26T01:11:52.620Z,32.30
2023-01-26T01:12:52.621Z,30.80
2023-01-26T01:13:52.602Z,30.30
2023-01-26T01:14:52.627Z,31.70
2023-01-26T01:15:52.617Z,30.40
2023-01-26T01:16:52.566Z,31.00
2023-01-26T01:17:52.594Z,30.90
2023-01-26T01:18:52.551Z,31.40
2023-01-26T01:19:52.546Z,32.00
2023-01-26T01:20:52.553Z,30.90
2023-01-26T01:21:52.527Z,30.80
2023-01-26T01:22:52.504Z,30.60
2023-01-26T01:23:52.518Z,29.10
2023-01-26T01:24:52.516Z,30.40
2023-01-26T01:25:52.487Z,31.50
2023-01-26T01:26:52.501Z,31.30
2023-01-26T01:27:52.449Z,29.20
2023-01-26T01:28:52.448Z,30.30
2023-01-26T01:29:52.427Z,30.40
2023-01-26T01:30:52.492Z,30.50
2023-01-26T01:31:52.473Z,29.50
2023-01-26T01:32:52.392Z,32.50
2023-01-26T01:33:52.391Z,30.90
2023-01-26T01:34:52.382Z,30.30
2023-01-26T01:35:52.374Z,30.60
2023-01-26T01:36:52.351Z,30.60
2023-01-26T01:37:52.344Z,31.80
2023-01-26T01:38:52.335Z,34.00
2023-01-26T01:39:52.316Z,31.20
2023-01-26T01:40:52.323Z,32.90
2023-01-26T01:41:52.305Z,30.20
2023-01-26T01:42:52.303Z,30.60
2023-01-26T01:43:52.304Z,30.60
2023-01-26T01:44:52.269Z,31.50
2023-01-26T01:45:52.284Z,32.70
2023-01-26T01:46:52.301Z,31.30
2023-01-26T01:47:52.233Z,32.30
2023-01-26T01:48:52.238Z,28.10
2023-01-26T01:49:52.240Z,32.40
2023-01-26T01:50:52.257Z,29.70
2023-01-26T01:51:52.191Z,30.00
2023-01-26T01:52:52.188Z,31.70
2023-01-26T01:53:52.166Z,30.70
2023-01-26T01:54:52.190Z,30.10
2023-01-26T01:55:52.195Z,30.60
2023-01-26T01:56:52.142Z,30.90
2023-01-26T01:57:52.144Z,29.30
2023-01-26T01:58:52.118Z,30.20
2023-01-26T01:59:52.108Z,30.10
2023-01-26T02:00:52.139Z,30.10
2023-01-26T02:01:52.177Z,29.30
2023-01-26T02:02:52.070Z,31.60
2023-01-26T02:03:52.093Z,29.60
2023-01-26T02:04:52.072Z,31.50
2023-01-26T02:05:52.058Z,31.30
2023-01-26T02:06:52.025Z,31.10
2023-01-26T02:07:52.015Z,31.00
2023-01-26T02:08:52.025Z,30.80
2023-01-26T02:09:52.002Z,32.30
2023-01-26T02:10:52.006Z,30.60
2023-01-26T02:11:51.984Z,30.10
2023-01-26T02:12:51.972Z,31.10
2023-01-26T02:13:51.974Z,31.20
2023-01-26T02:14:51.979Z,30.70
2023-01-26T02:15:52.041Z,30.80
2023-01-26T02:16:51.955Z,30.60
2023-01-26T02:17:51.912Z,31.70
2023-01-26T02:18:51.900Z,28.20
2023-01-26T02:19:51.895Z,31.50
2023-01-26T02:20:51.921Z,30.10
2023-01-26T02:21:51.884Z,31.30
2023-01-26T02:22:51.859Z,30.00
2023-01-26T02:23:51.872Z,29.90
2023-01-26T02:24:51.851Z,29.10
2023-01-26T02:25:51.877Z,30.10
2023-01-26T02:26:51.813Z,29.10
2023-01-26T02:27:51.811Z,30.50
2023-01-26T02:28:51.838Z,29.80
2023-01-26T02:29:51.789Z,29.60
2023-01-26T02:30:51.811Z,29.50
2023-01-26T02:31:51.786Z,29.30
2023-01-26T02:32:51.754Z,29.70
2023-01-26T02:33:51.735Z,30.20
2023-01-26T02:34:51.789Z,27.80
2023-01-26T02:35:51.724Z,30.40
2023-01-26T02:36:51.739Z,30.30
2023-01-26T02:37:51.705Z,30.50
2023-01-26T02:38:51.735Z,29.00
2023-01-26T02:39:51.688Z,28.10
2023-01-26T02:40:51.693Z,29.20
2023-01-26T02:41:51.664Z,27.60
2023-01-26T02:42:51.651Z,28.50
2023-01-26T02:43:51.659Z,28.20
2023-01-26T02:44:51.632Z,29.10
2023-01-26T02:45:51.628Z,27.80
2023-01-26T02:46:51.618Z,29.70
2023-01-26T02:47:51.589Z,29.60
2023-01-26T02:48:51.591Z,31.00
2023-01-26T02:49:51.570Z,28.30
2023-01-26T02:50:51.561Z,29.50
2023-01-26T02:51:51.585Z,29.70
2023-01-26T02:52:51.539Z,28.30
2023-01-26T02:53:51.548Z,29.30
2023-01-26T02:54:51.513Z,29.50
2023-01-26T02:55:51.513Z,27.20
2023-01-26T02:56:51.527Z,29.40
2023-01-26T02:57:51.487Z,29.10
2023-01-26T02:58:51.478Z,29.90
2023-01-26T02:59:51.492Z,28.30
2023-01-26T03:00:51.536Z,29.10
2023-01-26T03:01:51.529Z,28.50
2023-01-26T03:02:51.437Z,29.40
2023-01-26T03:03:51.412Z,28.80
2023-01-26T03:04:51.416Z,28.00
2023-01-26T03:05:51.403Z,30.00
2023-01-26T03:06:51.398Z,29.60
2023-01-26T03:07:51.383Z,29.20
2023-01-26T03:08:51.361Z,28.80
2023-01-26T03:09:51.403Z,30.40
2023-01-26T03:10:51.340Z,29.20
2023-01-26T03:11:51.350Z,28.80
2023-01-26T03:12:51.322Z,28.60
2023-01-26T03:13:51.333Z,26.60
2023-01-26T03:14:51.301Z,27.40
2023-01-26T03:15:51.329Z,28.70
2023-01-26T03:16:51.290Z,27.50
2023-01-26T03:17:51.283Z,27.90
2023-01-26T03:18:51.263Z,28.00
2023-01-26T03:19:51.256Z,28.20
2023-01-26T03:20:51.236Z,28.90
2023-01-26T03:21:51.262Z,27.70
2023-01-26T03:22:51.237Z,28.60
2023-01-26T03:23:51.220Z,26.70
2023-01-26T03:24:51.197Z,28.20
2023-01-26T03:25:51.207Z,28.40
2023-01-26T03:26:51.192Z,29.60
2023-01-26T03:27:51.200Z,28.50
2023-01-26T03:28:51.153Z,29.40
2023-01-26T03:29:51.152Z,28.50
2023-01-26T03:30:51.137Z,27.50
2023-01-26T03:31:51.134Z,28.50
2023-01-26T03:32:51.121Z,28.80
2023-01-26T03:33:51.107Z,28.70
2023-01-26T03:34:51.095Z,28.90
2023-01-26T03:35:51.094Z,29.30
2023-01-26T03:36:51.096Z,26.90
2023-01-26T03:37:51.049Z,29.80
2023-01-26T03:38:51.050Z,27.80
2023-01-26T03:39:51.038Z,30.20
2023-01-26T03:40:51.038Z,29.00
2023-01-26T03:41:51.032Z,28.20
2023-01-26T03:42:50.999Z,27.50
2023-01-26T03:43:51.011Z,29.10
2023-01-26T03:44:51.010Z,27.10
2023-01-26T03:45:50.974Z,28.70
2023-01-26T03:46:51.050Z,28.80
2023-01-26T03:47:50.962Z,29.40
2023-01-26T03:48:50.941Z,28.60
2023-01-26T03:49:50.990Z,28.40
2023-01-26T03:50:50.928Z,27.80
2023-01-26T03:51:50.924Z,27.90
2023-01-26T03:52:50.922Z,28.20
2023-01-26T03:53:50.882Z,26.60
2023-01-26T03:54:57.442Z,27.80
2023-01-26T03:55:50.853Z,27.70
2023-01-26T03:56:50.864Z,27.00
2023-01-26T03:57:50.842Z,26.10
2023-01-26T03:58:50.825Z,28.40
2023-01-26T03:59:50.866Z,26.30
2023-01-26T04:00:50.856Z,25.90
2023-01-26T04:01:50.891Z,28.40
2023-01-26T04:02:50.780Z,27.60
2023-01-26T04:03:50.766Z,27.60
2023-01-26T04:04:50.760Z,28.10
2023-01-26T04:05:50.754Z,27.70
2023-01-26T04:06:50.761Z,28.60
2023-01-26T04:07:50.738Z,25.40
2023-01-26T04:08:50.752Z,26.40
2023-01-26T04:09:50.707Z,25.80
2023-01-26T04:10:50.695Z,27.90
2023-01-26T04:11:50.713Z,26.60
2023-01-26T04:12:50.675Z,26.50
2023-01-26T04:13:50.661Z,26.00
2023-01-26T04:14:50.911Z,25.80
2023-01-26T04:15:50.653Z,25.70
2023-01-26T04:16:50.651Z,25.50
2023-01-26T04:17:50.630Z,25.50
2023-01-26T04:18:50.614Z,26.00
2023-01-26T04:19:50.598Z,25.80
2023-01-26T04:20:50.603Z,24.90
2023-01-26T04:21:50.593Z,25.50
2023-01-26T04:22:50.574Z,24.60
2023-01-26T04:23:50.556Z,24.40
2023-01-26T04:24:50.550Z,25.00
2023-01-26T04:25:50.545Z,25.30
2023-01-26T04:26:50.540Z,23.90
2023-01-26T04:27:50.535Z,24.70
2023-01-26T04:28:50.497Z,23.40
2023-01-26T04:29:50.495Z,24.60
2023-01-26T04:30:50.513Z,24.10
2023-01-26T04:31:50.566Z,23.40
2023-01-26T04:32:50.458Z,24.70
2023-01-26T04:33:50.449Z,25.20
2023-01-26T04:34:50.435Z,24.90
2023-01-26T04:35:50.437Z,25.80
2023-01-26T04:36:50.450Z,23.80
2023-01-26T04:37:50.409Z,22.90
2023-01-26T04:38:50.409Z,22.90
2023-01-26T04:39:50.379Z,22.20
2023-01-26T04:40:50.399Z,22.70
2023-01-26T04:41:50.388Z,23.70
2023-01-26T04:42:50.350Z,22.20
2023-01-26T04:43:50.349Z,20.80
2023-01-26T04:44:50.322Z,22.80
2023-01-26T04:45:50.346Z,23.40
2023-01-26T04:46:50.328Z,22.40
2023-01-26T04:47:50.302Z,23.50
2023-01-26T04:48:50.301Z,23.80
2023-01-26T04:49:50.281Z,22.20
2023-01-26T04:50:50.271Z,22.90
2023-01-26T04:51:50.280Z,22.90
2023-01-26T04:52:50.245Z,23.00
2023-01-26T04:53:50.233Z,22.50
2023-01-26T04:54:50.235Z,22.10
2023-01-26T04:55:50.211Z,20.40
2023-01-26T04:56:50.212Z,21.50
2023-01-26T04:57:50.189Z,21.30
2023-01-26T04:58:50.197Z,20.30
2023-01-26T04:59:50.171Z,22.80
2023-01-26T05:00:50.216Z,21.60
2023-01-26T05:01:50.172Z,21.50
2023-01-26T05:02:50.160Z,20.30
2023-01-26T05:03:50.198Z,21.90
2023-01-26T05:04:50.113Z,21.60
2023-01-26T05:05:50.108Z,19.90
2023-01-26T05:06:50.116Z,22.20
2023-01-26T05:07:50.094Z,20.70
2023-01-26T05:08:50.075Z,22.00
2023-01-26T05:09:50.074Z,22.80
2023-01-26T05:10:50.071Z,21.60
2023-01-26T05:11:50.049Z,22.20
2023-01-26T05:12:50.037Z,23.30
2023-01-26T05:13:50.027Z,20.70
2023-01-26T05:14:50.005Z,21.80
2023-01-26T05:15:49.994Z,21.10
2023-01-26T05:16:50.014Z,21.00
2023-01-26T05:17:49.977Z,20.50
2023-01-26T05:18:49.977Z,22.60
2023-01-26T05:19:49.950Z,22.00
2023-01-26T05:20:50.019Z,22.00
2023-01-26T05:21:49.963Z,20.80
2023-01-26T05:22:49.954Z,20.50
2023-01-26T05:23:49.954Z,21.60
2023-01-26T05:24:49.907Z,19.00
2023-01-26T05:25:49.891Z,21.00
2023-01-26T05:26:49.900Z,20.20
2023-01-26T05:27:49.886Z,22.40
2023-01-26T05:28:49.873Z,20.50
2023-01-26T05:29:49.885Z,20.90
2023-01-26T05:30:49.876Z,21.40
2023-01-26T05:31:49.853Z,19.40
2023-01-26T05:32:49.849Z,21.30
2023-01-26T05:33:49.804Z,19.90
2023-01-26T05:34:49.806Z,20.80
2023-01-26T05:35:49.811Z,21.40
2023-01-26T05:36:49.779Z,22.00
2023-01-26T05:37:49.792Z,20.90
2023-01-26T05:38:49.765Z,20.10
2023-01-26T05:39:49.744Z,21.00
2023-01-26T05:40:49.734Z,21.00
2023-01-26T05:41:49.751Z,20.30
2023-01-26T05:42:49.726Z,20.80
2023-01-26T05:43:49.704Z,19.50
2023-01-26T05:44:49.714Z,18.50
2023-01-26T05:45:49.726Z,19.90
2023-01-26T05:46:49.675Z,20.30
2023-01-26T05:47:49.682Z,18.70
2023-01-26T05:48:49.641Z,20.60
2023-01-26T05:49:49.668Z,20.40
2023-01-26T05:50:49.641Z,19.90
2023-01-26T05:51:49.634Z,21.00
2023-01-26T05:52:49.635Z,19.80
2023-01-26T05:53:49.598Z,20.70
2023-01-26T05:54:49.573Z,19.90
2023-01-26T05:55:49.577Z,20.10
2023-01-26T05:56:49.587Z,19.20
2023-01-26T05:57:49.567Z,20.60
2023-01-26T05:58:49.531Z,19.00
2023-01-26T05:59:49.520Z,20.10
2023-01-26T06:00:49.526Z,19.00
2023-01-26T06:01:49.565Z,19.50
2023-01-26T06:02:49.512Z,18.40
2023-01-26T06:03:49.478Z,19.70
2023-01-26T06:04:49.466Z,20.20
2023-01-26T06:05:49.465Z,19.30
2023-01-26T06:06:49.450Z,18.60
2023-01-26T06:07:49.471Z,19.50
2023-01-26T06:08:49.434Z,18.60
2023-01-26T06:09:49.417Z,20.60
2023-01-26T06:10:49.430Z,19.70
2023-01-26T06:11:49.405Z,20.00
2023-01-26T06:12:49.417Z,20.00
2023-01-26T06:13:49.373Z,18.20
2023-01-26T06:14:49.395Z,20.30
2023-01-26T06:15:49.358Z,18.70
2023-01-26T06:16:49.452Z,19.00
2023-01-26T06:17:49.351Z,19.90
2023-01-26T06:18:49.329Z,20.60
2023-01-26T06:19:49.307Z,18.20
2023-01-26T06:20:49.302Z,19.30
2023-01-26T06:21:49.286Z,18.90
2023-01-26T06:22:49.290Z,19.00
2023-01-26T06:23:49.308Z,20.50
2023-01-26T06:24:49.255Z,18.40
2023-01-26T06:25:49.245Z,19.10
2023-01-26T06:26:49.464Z,18.80
2023-01-26T06:27:49.245Z,19.10
2023-01-26T06:28:49.228Z,18.20
2023-01-26T06:29:49.226Z,19.50
2023-01-26T06:30:49.303Z,19.40
2023-01-26T06:31:49.239Z,17.40
2023-01-26T06:32:49.180Z,18.20
2023-01-26T06:33:49.154Z,17.90
2023-01-26T06:34:49.151Z,19.20
2023-01-26T06:35:49.138Z,18.70
2023-01-26T06:36:49.131Z,19.70
2023-01-26T06:37:49.128Z,18.90
2023-01-26T06:38:49.113Z,18.00
2023-01-26T06:39:49.106Z,18.60
2023-01-26T06:40:49.123Z,18.20
2023-01-26T06:41:49.080Z,19.10
2023-01-26T06:42:49.098Z,17.60
2023-01-26T06:43:49.039Z,17.70
2023-01-26T06:44:49.042Z,19.30
2023-01-26T06:45:49.078Z,17.80
2023-01-26T06:46:49.029Z,18.00
2023-01-26T06:47:49.018Z,18.80
2023-01-26T06:48:49.015Z,18.70
2023-01-26T06:49:48.998Z,19.10
2023-01-26T06:50:48.979Z,19.20
2023-01-26T06:51:48.962Z,18.60
2023-01-26T06:52:48.973Z,18.10
2023-01-26T06:53:48.964Z,17.60
2023-01-26T06:54:48.926Z,18.10
2023-01-26T06:55:48.921Z,19.10
2023-01-26T06:56:48.939Z,19.30
2023-01-26T06:57:48.916Z,19.00
2023-01-26T06:58:48.898Z,19.30
2023-01-26T06:59:48.897Z,17.50
2023-01-26T07:00:48.867Z,19.60
2023-01-26T07:01:48.852Z,18.80
2023-01-26T07:02:48.892Z,19.60
2023-01-26T07:03:48.834Z,19.80
2023-01-26T07:04:48.840Z,19.10
2023-01-26T07:05:48.813Z,18.50
2023-01-26T07:06:48.887Z,18.90
2023-01-26T07:07:48.827Z,18.50
2023-01-26T07:08:48.793Z,19.30
2023-01-26T07:09:48.767Z,18.20
2023-01-26T07:10:48.761Z,18.90
2023-01-26T07:11:48.769Z,17.90
2023-01-26T07:12:48.800Z,19.60
2023-01-26T07:13:48.745Z,18.60
2023-01-26T07:14:48.746Z,19.40
2023-01-26T07:15:48.703Z,19.60
2023-01-26T07:16:48.788Z,19.10
2023-01-26T07:17:48.717Z,19.30
2023-01-26T07:18:48.677Z,18.50
2023-01-26T07:19:48.671Z,18.40
2023-01-26T07:20:48.663Z,19.00
2023-01-26T07:21:48.682Z,20.20
2023-01-26T07:22:48.666Z,17.70
2023-01-26T07:23:48.703Z,20.00
2023-01-26T07:24:48.672Z,19.10
2023-01-26T07:25:48.613Z,18.20
2023-01-26T07:26:48.638Z,18.60
2023-01-26T07:27:48.607Z,18.30
2023-01-26T07:28:48.618Z,17.40
2023-01-26T07:29:48.575Z,18.50
2023-01-26T07:30:48.627Z,18.00
2023-01-26T07:31:48.632Z,18.70
2023-01-26T07:32:48.581Z,18.40
2023-01-26T07:33:48.511Z,18.60
2023-01-26T07:34:48.543Z,19.30
2023-01-26T07:35:48.522Z,19.00
2023-01-26T07:36:48.520Z,18.90
2023-01-26T07:37:48.511Z,19.40
2023-01-26T07:38:48.537Z,19.30
2023-01-26T07:39:48.454Z,19.10
2023-01-26T07:40:48.461Z,19.10
2023-01-26T07:41:48.453Z,19.60
2023-01-26T07:42:48.506Z,19.00
2023-01-26T07:43:48.446Z,18.30
2023-01-26T07:44:48.437Z,19.40
2023-01-26T07:45:48.386Z,18.40
2023-01-26T07:46:48.491Z,19.10
2023-01-26T07:47:48.379Z,18.60
2023-01-26T07:48:48.355Z,18.40
2023-01-26T07:49:48.350Z,20.00
2023-01-26T07:50:48.419Z,19.80
2023-01-26T07:51:48.352Z,18.30
2023-01-26T07:52:48.418Z,18.50
2023-01-26T07:53:48.340Z,20.80
2023-01-26T07:54:48.325Z,19.10
2023-01-26T07:55:48.326Z,20.50
2023-01-26T07:56:48.365Z,19.50
2023-01-26T07:57:48.282Z,19.10
2023-01-26T07:58:48.277Z,19.20
2023-01-26T07:59:48.263Z,18.10
2023-01-26T08:00:48.284Z,19.60
2023-01-26T08:01:48.239Z,19.90
2023-01-26T08:02:48.330Z,19.20
2023-01-26T08:03:48.232Z,19.60
2023-01-26T08:04:48.206Z,19.70
2023-01-26T08:05:48.192Z,18.00
2023-01-26T08:06:48.192Z,19.00
2023-01-26T08:07:48.191Z,18.90
2023-01-26T08:08:48.153Z,18.30
2023-01-26T08:09:48.173Z,19.30
2023-01-26T08:10:48.144Z,18.20
2023-01-26T08:11:48.145Z,18.80
2023-01-26T08:12:48.140Z,19.70
2023-01-26T08:13:48.092Z,17.80
2023-01-26T08:14:48.114Z,19.00
2023-01-26T08:15:48.064Z,18.10
2023-01-26T08:16:48.169Z,19.20
2023-01-26T08:17:48.087Z,19.00
2023-01-26T08:18:48.045Z,19.30
2023-01-26T08:19:48.050Z,18.40
2023-01-26T08:20:48.035Z,17.50
2023-01-26T08:21:48.023Z,18.80
2023-01-26T08:22:48.025Z,20.00
2023-01-26T08:23:48.045Z,18.70
2023-01-26T08:24:47.968Z,18.90
2023-01-26T08:25:48.034Z,19.20
2023-01-26T08:26:47.951Z,18.80
2023-01-26T08:27:47.966Z,19.00
2023-01-26T08:28:47.958Z,17.60
2023-01-26T08:29:47.941Z,18.80
2023-01-26T08:30:47.970Z,19.30
2023-01-26T08:31:47.965Z,17.70
2023-01-26T08:32:47.927Z,18.00
2023-01-26T08:33:47.872Z,18.70
2023-01-26T08:34:47.867Z,17.80
2023-01-26T08:35:47.888Z,17.70
2023-01-26T08:36:47.850Z,17.90
2023-01-26T08:37:47.845Z,18.00
2023-01-26T08:38:47.848Z,17.30
2023-01-26T08:39:47.841Z,17.90
2023-01-26T08:40:47.794Z,17.70
2023-01-26T08:41:47.790Z,17.20
2023-01-26T08:42:47.785Z,17.20
2023-01-26T08:43:47.813Z,17.70
2023-01-26T08:44:47.795Z,19.30
2023-01-26T08:45:47.836Z,17.80
2023-01-26T08:46:47.735Z,18.40
2023-01-26T08:47:47.737Z,16.90
2023-01-26T08:48:47.718Z,16.70
2023-01-26T08:49:47.733Z,18.50
2023-01-26T08:50:47.699Z,16.60
2023-01-26T08:51:47.670Z,18.70
2023-01-26T08:52:47.676Z,17.50
2023-01-26T08:53:47.682Z,18.60
2023-01-26T08:54:47.639Z,16.30
2023-01-26T08:55:47.649Z,16.90
2023-01-26T08:56:47.620Z,17.20
2023-01-26T08:57:47.640Z,16.30
2023-01-26T08:58:47.652Z,18.10
2023-01-26T08:59:47.653Z,17.80
2023-01-26T09:00:47.662Z,17.80
2023-01-26T09:01:50.107Z,16.20
2023-01-26T09:02:47.647Z,17.40
2023-01-26T09:03:47.599Z,16.60
2023-01-26T09:04:47.542Z,17.10
2023-01-26T09:05:47.537Z,16.50
2023-01-26T09:06:47.521Z,17.10
2023-01-26T09:07:47.509Z,17.00
2023-01-26T09:08:47.508Z,16.50
2023-01-26T09:09:47.479Z,16.40
2023-01-26T09:10:47.466Z,15.40
2023-01-26T09:11:47.472Z,16.50
2023-01-26T09:12:47.441Z,16.40
2023-01-26T09:13:47.462Z,16.30
2023-01-26T09:14:47.419Z,16.30
2023-01-26T09:15:47.409Z,15.00
2023-01-26T09:16:47.452Z,15.40
2023-01-26T09:17:47.397Z,13.80
2023-01-26T09:18:47.386Z,15.80
2023-01-26T09:19:47.366Z,15.20
2023-01-26T09:20:47.356Z,15.20
2023-01-26T09:21:47.340Z,16.50
2023-01-26T09:22:47.343Z,14.60
2023-01-26T09:23:47.443Z,14.80
2023-01-26T09:24:47.314Z,14.60
2023-01-26T09:25:47.305Z,15.80
2023-01-26T09:26:47.300Z,14.20
2023-01-26T09:27:47.279Z,15.90
2023-01-26T09:28:47.285Z,14.80
2023-01-26T09:29:47.322Z,14.00
2023-01-26T09:30:47.382Z,14.00
2023-01-26T09:31:47.375Z,15.70
2023-01-26T09:32:47.245Z,14.60
2023-01-26T09:33:47.220Z,14.40
2023-01-26T09:34:47.229Z,15.50
2023-01-26T09:35:47.198Z,14.80
2023-01-26T09:36:47.189Z,13.70
2023-01-26T09:37:47.179Z,15.10
2023-01-26T09:38:47.198Z,14.70
2023-01-26T09:39:47.161Z,14.50
2023-01-26T09:40:47.148Z,14.60
2023-01-26T09:41:47.143Z,14.80
2023-01-26T09:42:47.128Z,14.80
2023-01-26T09:43:47.113Z,13.80
2023-01-26T09:44:47.100Z,14.00
2023-01-26T09:45:47.107Z,15.40
2023-01-26T09:46:47.075Z,15.00
2023-01-26T09:47:47.058Z,13.90
2023-01-26T09:48:47.080Z,13.90
2023-01-26T09:49:47.051Z,13.10
2023-01-26T09:50:47.026Z,13.30
2023-01-26T09:51:47.045Z,14.00
2023-01-26T09:52:47.013Z,14.50
2023-01-26T09:53:47.020Z,12.60
2023-01-26T09:54:46.988Z,13.40
2023-01-26T09:55:46.992Z,13.80
2023-01-26T09:56:47.027Z,13.90
2023-01-26T09:57:46.981Z,13.10
2023-01-26T09:58:46.956Z,13.80
2023-01-26T09:59:46.933Z,13.00
2023-01-26T10:00:46.925Z,13.20
2023-01-26T10:01:46.968Z,12.50
2023-01-26T10:02:47.025Z,13.40
2023-01-26T10:03:46.924Z,13.70
2023-01-26T10:04:46.888Z,13.00
2023-01-26T10:05:46.891Z,12.80
2023-01-26T10:06:46.869Z,12.30
2023-01-26T10:07:46.862Z,13.00
2023-01-26T10:08:46.875Z,11.70
2023-01-26T10:09:46.841Z,13.20
2023-01-26T10:10:46.813Z,12.30
2023-01-26T10:11:46.807Z,13.00
2023-01-26T10:12:46.791Z,12.90
2023-01-26T10:13:46.816Z,12.50
2023-01-26T10:14:46.769Z,11.60
2023-01-26T10:15:46.795Z,12.10
2023-01-26T10:16:46.761Z,13.10
2023-01-26T10:17:46.744Z,13.00
2023-01-26T10:18:46.751Z,12.10
2023-01-26T10:19:46.717Z,12.30
2023-01-26T10:20:46.702Z,12.70
2023-01-26T10:21:46.692Z,13.00
2023-01-26T10:22:46.679Z,11.30
2023-01-26T10:23:46.715Z,11.70
2023-01-26T10:24:46.661Z,12.40
2023-01-26T10:25:46.686Z,12.80
2023-01-26T10:26:46.647Z,12.00
2023-01-26T10:27:46.665Z,12.20
2023-01-26T10:28:46.666Z,12.40
2023-01-26T10:29:46.611Z,12.80
2023-01-26T10:30:46.728Z,12.70
2023-01-26T10:31:46.647Z,12.60
2023-01-26T10:32:46.626Z,12.50
2023-01-26T10:33:46.605Z,12.40
2023-01-26T10:34:46.548Z,11.60
2023-01-26T10:35:46.533Z,11.70
2023-01-26T10:36:46.546Z,11.70
2023-01-26T10:37:46.536Z,11.80
2023-01-26T10:38:46.533Z,12.00
2023-01-26T10:39:46.498Z,12.60
2023-01-26T10:40:46.486Z,11.20
2023-01-26T10:41:46.472Z,11.00
2023-01-26T10:42:46.478Z,11.20
2023-01-26T10:43:46.476Z,11.40
2023-01-26T10:44:46.446Z,11.10
2023-01-26T10:45:46.427Z,11.60
2023-01-26T10:46:46.497Z,10.90
2023-01-26T10:47:46.415Z,11.70
2023-01-26T10:48:46.435Z,11.00
2023-01-26T10:49:46.398Z,11.40
2023-01-26T10:50:46.387Z,10.60
2023-01-26T10:51:46.372Z,10.90
2023-01-26T10:52:46.358Z,10.50
2023-01-26T10:53:46.384Z,10.40
2023-01-26T10:54:46.338Z,11.40
2023-01-26T10:55:46.334Z,11.80
2023-01-26T10:56:46.315Z,12.70
2023-01-26T10:57:46.303Z,12.00
2023-01-26T10:58:46.326Z,12.20
2023-01-26T10:59:46.292Z,12.80
2023-01-26T11:00:46.280Z,13.20
2023-01-26T11:01:46.286Z,12.30
2023-01-26T11:02:46.306Z,12.30
2023-01-26T11:03:46.285Z,11.40
2023-01-26T11:04:46.227Z,12.00
2023-01-26T11:05:46.225Z,11.20
2023-01-26T11:06:46.232Z,11.60
2023-01-26T11:07:46.204Z,11.80
2023-01-26T11:08:46.221Z,12.50
2023-01-26T11:09:46.205Z,12.10
2023-01-26T11:10:46.163Z,12.00
2023-01-26T11:11:46.155Z,12.40
2023-01-26T11:12:46.166Z,11.00
2023-01-26T11:13:46.144Z,12.50
2023-01-26T11:14:46.123Z,13.30
2023-01-26T11:15:46.108Z,13.50
2023-01-26T11:16:46.117Z,11.80
2023-01-26T11:17:46.086Z,12.60
2023-01-26T11:18:46.104Z,11.30
2023-01-26T11:19:46.070Z,12.90
2023-01-26T11:20:46.072Z,11.80
2023-01-26T11:21:46.042Z,11.00
2023-01-26T11:22:46.055Z,10.40
2023-01-26T11:23:46.079Z,11.80
2023-01-26T11:24:46.016Z,10.70
2023-01-26T11:25:46.009Z,11.40
2023-01-26T11:26:45.992Z,12.40
2023-01-26T11:27:45.998Z,11.70
2023-01-26T11:28:45.985Z,11.10
2023-01-26T11:29:45.970Z,12.00
2023-01-26T11:30:45.963Z,11.00
2023-01-26T11:31:46.022Z,10.80
2023-01-26T11:32:45.922Z,10.60
2023-01-26T11:33:45.930Z,10.70
2023-01-26T11:34:45.914Z,11.90
2023-01-26T11:35:45.897Z,11.60
2023-01-26T11:36:45.893Z,11.00
2023-01-26T11:37:45.875Z,11.20
2023-01-26T11:38:45.889Z,10.90
2023-01-26T11:39:45.854Z,11.20
2023-01-26T11:40:45.838Z,11.40
2023-01-26T11:41:45.826Z,11.20
2023-01-26T11:42:45.813Z,11.10
2023-01-26T11:43:45.840Z,10.30
2023-01-26T11:44:45.809Z,10.80
2023-01-26T11:45:45.813Z,11.40
2023-01-26T11:46:45.784Z,10.60
2023-01-26T11:47:45.772Z,11.60
2023-01-26T11:48:45.768Z,10.80
2023-01-26T11:49:45.739Z,10.00
2023-01-26T11:50:45.779Z,11.70
2023-01-26T11:51:45.727Z,10.80
2023-01-26T11:52:45.710Z,10.90
2023-01-26T11:53:45.731Z,11.00
2023-01-26T11:54:45.694Z,10.30
2023-01-26T11:55:45.684Z,10.30
2023-01-26T11:56:45.678Z,10.90
2023-01-26T11:57:45.664Z,10.80
2023-01-26T11:58:45.663Z,12.30
2023-01-26T11:59:45.635Z,11.20
2023-01-26T12:00:45.626Z,10.40
2023-01-26T12:01:45.608Z,11.20
2023-01-26T12:02:45.608Z,11.20
2023-01-26T12:03:45.603Z,11.20
2023-01-26T12:04:45.574Z,10.20
2023-01-26T12:05:45.570Z,10.50
2023-01-26T12:06:45.575Z,10.50
2023-01-26T12:07:45.546Z,10.30
2023-01-26T12:08:45.545Z,12.20
2023-01-26T12:09:45.518Z,11.20
2023-01-26T12:10:45.528Z,11.60
2023-01-26T12:11:45.516Z,11.80
2023-01-26T12:12:45.504Z,10.90
2023-01-26T12:13:45.498Z,10.70
2023-01-26T12:14:45.473Z,11.00
2023-01-26T12:15:45.464Z,10.60
2023-01-26T12:16:45.519Z,11.30
2023-01-26T12:17:45.435Z,11.10
2023-01-26T12:18:55.777Z,10.80
2023-01-26T12:19:45.452Z,9.90
2023-01-26T12:20:45.414Z,10.80
2023-01-26T12:21:45.467Z,11.20
2023-01-26T12:22:45.379Z,11.30
2023-01-26T12:23:45.444Z,10.00
2023-01-26T12:25:16.093Z,10.40
2023-01-26T12:25:45.390Z,11.50
2023-01-26T12:26:45.338Z,11.80
2023-01-26T12:27:45.350Z,10.40
2023-01-26T12:28:45.331Z,10.50
2023-01-26T12:29:45.326Z,10.80
2023-01-26T12:30:45.386Z,10.10
2023-01-26T12:31:45.338Z,11.00
2023-01-26T12:32:45.289Z,11.30
2023-01-26T12:33:45.282Z,11.50
2023-01-26T12:34:45.270Z,14.80
2023-01-26T12:35:45.266Z,13.80
2023-01-26T12:36:45.254Z,14.40
2023-01-26T12:37:45.236Z,13.90
2023-01-26T12:38:45.235Z,12.50
2023-01-26T12:39:45.210Z,11.90
2023-01-26T12:40:45.205Z,10.90
2023-01-26T12:41:45.194Z,11.70
2023-01-26T12:42:45.187Z,10.90
2023-01-26T12:43:45.210Z,10.50
2023-01-26T12:44:45.156Z,12.00
2023-01-26T12:45:45.134Z,16.30
2023-01-26T12:46:45.134Z,19.70
2023-01-26T12:47:45.119Z,19.10
2023-01-26T12:48:45.128Z,16.60
2023-01-26T12:49:45.134Z,21.80
2023-01-26T12:50:45.085Z,29.20
2023-01-26T12:51:45.129Z,22.90
2023-01-26T12:52:45.074Z,23.40